createdAt,value
2022-08-03T00:00:44.304Z,100.00
2022-08-03T00:03:13.591Z,100.00
2022-08-03T00:06:03.724Z,100.00
2022-08-03T00:08:32.027Z,100.00
2022-08-03T00:11:01.459Z,100.00
2022-08-03T00:13:32.100Z,100.00
2022-08-03T00:16:01.332Z,100.00
2022-08-03T00:18:30.519Z,100.00
2022-08-03T00:20:59.765Z,100.00
2022-08-03T00:23:50.914Z,100.00
2022-08-03T00:26:18.170Z,100.00
2022-08-03T00:28:49.047Z,100.00
2022-08-03T00:31:23.129Z,100.00
2022-08-03T00:34:07.942Z,100.00
2022-08-03T00:36:37.642Z,100.00
2022-08-03T00:39:06.866Z,100.00
2022-08-03T00:41:36.066Z,100.00
2022-08-03T00:44:06.862Z,100.00
2022-08-03T00:46:36.079Z,100.00
2022-08-03T00:49:05.372Z,100.00
2022-08-03T00:51:35.532Z,100.00
2022-08-03T00:54:04.893Z,100.00
2022-08-03T00:56:34.076Z,100.00
2022-08-03T00:59:04.635Z,100.00
2022-08-03T01:01:35.598Z,100.00
2022-08-03T01:04:05.160Z,100.00
2022-08-03T01:06:44.628Z,100.00
2022-08-03T01:09:23.765Z,100.00
2022-08-03T01:12:04.638Z,100.00
2022-08-03T01:14:40.209Z,100.00
2022-08-03T01:17:20.758Z,100.00
2022-08-03T01:19:59.438Z,100.00
2022-08-03T01:23:11.809Z,100.00
2022-08-03T01:26:01.318Z,100.00
2022-08-03T01:29:03.844Z,100.00
2022-08-03T01:32:53.304Z,100.00
2022-08-03T01:34:38.007Z,100.00
2022-08-03T01:37:12.131Z,100.00
2022-08-03T01:39:44.018Z,100.00
2022-08-03T01:42:15.397Z,100.00
2022-08-03T01:44:46.913Z,100.00
2022-08-03T01:47:21.241Z,100.00
2022-08-03T01:49:52.824Z,100.00
2022-08-03T01:52:23.622Z,100.00
2022-08-03T01:54:54.976Z,100.00
2022-08-03T01:57:26.622Z,100.00
2022-08-03T01:59:58.510Z,100.00
2022-08-03T02:02:34.074Z,100.00
2022-08-03T02:05:10.782Z,100.00
2022-08-03T02:07:43.688Z,100.00
2022-08-03T02:10:17.220Z,100.00
2022-08-03T02:13:08.667Z,100.00
2022-08-03T02:15:39.647Z,100.00
2022-08-03T02:18:11.523Z,100.00
2022-08-03T02:20:44.299Z,100.00
2022-08-03T02:23:14.011Z,100.00
2022-08-03T02:25:47.960Z,100.00
2022-08-03T02:28:21.682Z,100.00
2022-08-03T02:30:56.857Z,100.00
2022-08-03T02:33:32.917Z,100.00
2022-08-03T02:36:03.943Z,100.00
2022-08-03T02:38:37.340Z,100.00
2022-08-03T02:41:13.199Z,100.00
2022-08-03T02:44:06.696Z,100.00
2022-08-03T02:46:38.577Z,100.00
2022-08-03T02:49:40.929Z,100.00
2022-08-03T02:52:02.971Z,100.00
2022-08-03T02:54:33.949Z,100.00
2022-08-03T02:57:03.896Z,100.00
2022-08-03T02:59:34.795Z,100.00
2022-08-03T03:02:04.970Z,100.00
2022-08-03T03:04:36.864Z,100.00
2022-08-03T03:07:06.562Z,100.00
2022-08-03T03:09:41.640Z,100.00
2022-08-03T03:12:15.167Z,100.00
2022-08-03T03:14:44.605Z,100.00
2022-08-03T03:17:16.453Z,100.00
2022-08-03T03:19:48.414Z,100.00
2022-08-03T03:22:19.006Z,100.00
2022-08-03T03:24:49.862Z,100.00
2022-08-03T03:27:19.663Z,100.00
2022-08-03T03:29:51.278Z,100.00
2022-08-03T03:32:20.709Z,100.00
2022-08-03T03:34:52.154Z,100.00
2022-08-03T03:37:21.401Z,100.00
2022-08-03T03:39:50.892Z,100.00
2022-08-03T03:42:20.385Z,100.00
2022-08-03T03:44:49.545Z,100.00
2022-08-03T03:47:32.280Z,100.00
2022-08-03T03:50:05.140Z,100.00
2022-08-03T03:52:35.103Z,100.00
2022-08-03T03:55:04.539Z,100.00
2022-08-03T03:57:35.286Z,100.00
2022-08-03T04:00:06.225Z,100.00
2022-08-03T04:02:35.506Z,100.00
2022-08-03T04:05:25.161Z,100.00
2022-08-03T04:08:18.005Z,100.00
2022-08-03T04:11:01.721Z,100.00
2022-08-03T04:13:35.368Z,100.00
2022-08-03T04:16:09.203Z,100.00
2022-08-03T04:18:41.463Z,100.00
2022-08-03T04:21:16.388Z,100.00
2022-08-03T04:23:49.916Z,100.00
2022-08-03T04:26:23.396Z,100.00
2022-08-03T04:28:53.978Z,100.00
2022-08-03T04:31:25.682Z,100.00
2022-08-03T04:33:56.237Z,100.00
2022-08-03T04:36:32.597Z,100.00
2022-08-03T04:39:06.674Z,100.00
2022-08-03T04:42:06.936Z,100.00
2022-08-03T04:44:29.806Z,100.00
2022-08-03T04:47:00.814Z,100.00
2022-08-03T04:49:32.056Z,100.00
2022-08-03T04:52:03.000Z,100.00
2022-08-03T04:54:32.661Z,100.00
2022-08-03T04:57:01.932Z,100.00
2022-08-03T04:59:31.195Z,100.00
2022-08-03T05:02:00.508Z,100.00
2022-08-03T05:04:29.916Z,100.00
2022-08-03T05:06:59.330Z,100.00
2022-08-03T05:09:50.467Z,100.00
2022-08-03T05:12:21.772Z,100.00
2022-08-03T05:14:51.107Z,100.00
2022-08-03T05:17:20.733Z,100.00
2022-08-03T05:19:50.101Z,100.00
2022-08-03T05:22:19.389Z,100.00
2022-08-03T05:24:50.026Z,100.00
2022-08-03T05:27:20.301Z,100.00
2022-08-03T05:29:51.200Z,100.00
2022-08-03T05:32:20.993Z,100.00
2022-08-03T05:34:50.429Z,100.00
2022-08-03T05:37:19.665Z,100.00
2022-08-03T05:39:50.407Z,100.00
2022-08-03T05:42:19.551Z,100.00
2022-08-03T05:44:48.814Z,100.00
2022-08-03T05:47:18.192Z,100.00
2022-08-03T05:49:47.643Z,100.00
2022-08-03T05:52:17.018Z,100.00
2022-08-03T05:54:57.491Z,100.00
2022-08-03T05:57:28.479Z,100.00
2022-08-03T05:59:58.713Z,100.00
2022-08-03T06:02:28.639Z,100.00
2022-08-03T06:04:57.767Z,100.00
2022-08-03T06:07:27.080Z,100.00
2022-08-03T06:10:34.023Z,100.00
2022-08-03T06:12:49.423Z,100.00
2022-08-03T06:15:19.878Z,100.00
2022-08-03T06:17:50.001Z,100.00
2022-08-03T06:20:21.729Z,100.00
2022-08-03T06:23:00.279Z,100.00
2022-08-03T06:25:31.018Z,100.00
2022-08-03T06:28:01.570Z,100.00
2022-08-03T06:30:30.864Z,100.00
2022-08-03T06:32:59.993Z,100.00
2022-08-03T06:35:29.402Z,100.00
2022-08-03T06:37:58.719Z,100.00
2022-08-03T06:40:31.344Z,100.00
2022-08-03T06:43:04.150Z,100.00
2022-08-03T06:45:34.392Z,100.00
2022-08-03T06:48:06.231Z,100.00
2022-08-03T06:50:38.357Z,100.00
2022-08-03T06:53:09.129Z,100.00
2022-08-03T06:55:51.108Z,100.00
2022-08-03T06:58:24.838Z,100.00
2022-08-03T07:00:54.805Z,98.15
2022-08-03T07:03:26.069Z,100.00
2022-08-03T07:05:55.374Z,99.39
2022-08-03T07:08:34.232Z,95.31
2022-08-03T07:11:03.986Z,97.67
2022-08-03T07:13:35.054Z,94.98
2022-08-03T07:16:04.366Z,94.00
2022-08-03T07:18:33.489Z,95.22
2022-08-03T07:21:02.710Z,95.40
2022-08-03T07:23:32.081Z,93.13
2022-08-03T07:26:01.345Z,87.74
2022-08-03T07:28:30.729Z,86.86
2022-08-03T07:31:01.434Z,79.63
2022-08-03T07:33:30.782Z,84.20
2022-08-03T07:36:00.094Z,84.58
2022-08-03T07:38:30.050Z,82.76
2022-08-03T07:40:59.399Z,86.18
2022-08-03T07:43:28.890Z,85.10
2022-08-03T07:46:00.709Z,86.26
2022-08-03T07:48:31.477Z,84.49
2022-08-03T07:51:00.679Z,83.70
2022-08-03T07:53:29.935Z,78.58
2022-08-03T07:55:59.204Z,81.35
2022-08-03T07:58:29.903Z,79.70
2022-08-03T08:00:59.239Z,81.42
2022-08-03T08:03:28.466Z,77.71
2022-08-03T08:06:19.325Z,78.01
2022-08-03T08:08:48.839Z,76.37
2022-08-03T08:11:18.005Z,79.21
2022-08-03T08:13:47.217Z,79.79
2022-08-03T08:16:16.830Z,76.85
2022-08-03T08:18:46.005Z,71.92
2022-08-03T08:21:15.274Z,70.78
2022-08-03T08:23:51.779Z,66.18
2022-08-03T08:26:27.411Z,67.22
2022-08-03T08:28:56.949Z,66.37
2022-08-03T08:31:26.180Z,68.04
2022-08-03T08:34:04.310Z,64.12
2022-08-03T08:36:35.683Z,62.44
2022-08-03T08:39:06.476Z,60.54
2022-08-03T08:41:35.823Z,61.18
2022-08-03T08:44:08.307Z,63.52
2022-08-03T08:46:39.763Z,63.72
2022-08-03T08:49:12.304Z,59.12
2022-08-03T08:51:59.536Z,60.87
2022-08-03T08:54:34.176Z,60.59
2022-08-03T08:57:21.112Z,60.09
2022-08-03T08:59:57.442Z,64.11
2022-08-03T09:02:28.843Z,59.72
2022-08-03T09:04:59.836Z,61.29
2022-08-03T09:07:31.214Z,61.13
2022-08-03T09:10:11.182Z,58.83
2022-08-03T09:12:45.947Z,60.75
2022-08-03T09:15:21.404Z,59.99
2022-08-03T09:17:52.135Z,60.09
2022-08-03T09:20:22.725Z,57.23
2022-08-03T09:22:59.055Z,58.95
2022-08-03T09:25:31.907Z,58.50
2022-08-03T09:28:12.330Z,56.92
2022-08-03T09:30:44.163Z,56.05
2022-08-03T09:33:16.521Z,55.20
2022-08-03T09:35:54.054Z,57.05
2022-08-03T09:38:26.433Z,56.00
2022-08-03T09:41:00.946Z,52.36
2022-08-03T09:43:46.949Z,54.36
2022-08-03T09:46:16.234Z,55.23
2022-08-03T09:48:46.092Z,54.24
2022-08-03T09:52:31.285Z,53.66
2022-08-03T09:54:09.610Z,51.34
2022-08-03T09:56:48.542Z,53.62
2022-08-03T09:59:26.630Z,50.23
2022-08-03T10:01:56.885Z,49.91
2022-08-03T10:04:27.091Z,51.25
2022-08-03T10:07:08.389Z,52.38
2022-08-03T10:09:38.549Z,52.34
2022-08-03T10:12:14.633Z,54.62
2022-08-03T10:14:45.786Z,56.42
2022-08-03T10:17:15.495Z,52.15
2022-08-03T10:19:44.953Z,49.63
2022-08-03T10:22:16.826Z,48.89
2022-08-03T10:24:54.973Z,49.80
2022-08-03T10:27:26.393Z,50.76
2022-08-03T10:30:02.982Z,50.99
2022-08-03T10:32:36.080Z,49.55
2022-08-03T10:35:20.096Z,50.08
2022-08-03T10:37:59.204Z,49.72
2022-08-03T10:40:49.546Z,50.17
2022-08-03T10:43:24.202Z,51.02
2022-08-03T10:45:53.542Z,49.19
2022-08-03T10:48:23.627Z,50.46
2022-08-03T10:50:53.584Z,50.05
2022-08-03T10:53:37.452Z,50.69
2022-08-03T10:56:36.837Z,48.12
2022-08-03T10:59:28.003Z,47.24
2022-08-03T11:02:00.692Z,48.13
2022-08-03T11:04:30.923Z,46.55
2022-08-03T11:07:23.739Z,41.74
2022-08-03T11:09:54.929Z,45.53
2022-08-03T11:12:28.319Z,42.56
2022-08-03T11:15:08.899Z,44.65
2022-08-03T11:17:46.679Z,43.49
2022-08-03T11:20:47.539Z,37.81
2022-08-03T11:23:20.147Z,40.08
2022-08-03T11:26:21.370Z,37.83
2022-08-03T11:28:52.717Z,36.58
2022-08-03T11:31:51.919Z,35.97
2022-08-03T11:34:21.339Z,38.52
2022-08-03T11:37:26.367Z,34.93
2022-08-03T11:39:59.313Z,33.84
2022-08-03T11:42:50.839Z,31.70
2022-08-03T11:45:20.351Z,33.08
2022-08-03T11:47:55.109Z,31.05
2022-08-03T11:50:24.559Z,28.79
2022-08-03T11:52:53.986Z,33.21
2022-08-03T11:55:24.333Z,30.49
2022-08-03T11:59:18.754Z,30.62
2022-08-03T12:00:52.034Z,33.21
2022-08-03T12:03:22.874Z,36.96
2022-08-03T12:05:54.709Z,36.62
2022-08-03T12:08:35.104Z,39.04
2022-08-03T12:11:07.143Z,37.18
2022-08-03T12:14:45.435Z,34.98
2022-08-03T12:16:34.147Z,35.63
2022-08-03T12:19:08.260Z,35.38
2022-08-03T12:21:55.826Z,36.40
2022-08-03T12:24:29.584Z,31.72
2022-08-03T12:27:00.008Z,28.01
2022-08-03T12:29:29.599Z,28.56
2022-08-03T12:31:58.973Z,25.69
2022-08-03T12:34:50.992Z,27.45
2022-08-03T12:37:22.745Z,26.16
2022-08-03T12:40:00.879Z,23.47
2022-08-03T12:42:34.988Z,23.18
2022-08-03T12:45:23.351Z,23.35
2022-08-03T12:47:55.154Z,20.99
2022-08-03T12:50:34.957Z,23.51
2022-08-03T12:53:08.882Z,22.81
2022-08-03T12:56:04.710Z,20.15
2022-08-03T12:58:35.121Z,19.87
2022-08-03T13:01:10.115Z,20.41
2022-08-03T13:03:50.443Z,20.78
2022-08-03T13:06:26.600Z,18.08
2022-08-03T13:09:07.512Z,19.64
2022-08-03T13:11:55.798Z,22.36
2022-08-03T13:14:27.050Z,24.45
2022-08-03T13:16:56.347Z,26.67
2022-08-03T13:19:25.588Z,22.80
2022-08-03T13:22:03.943Z,22.67
2022-08-03T13:24:35.118Z,21.74
2022-08-03T13:28:01.698Z,24.42
2022-08-03T13:29:56.458Z,24.44
2022-08-03T13:32:25.704Z,25.39
2022-08-03T13:34:54.940Z,26.91
2022-08-03T13:37:26.249Z,24.83
2022-08-03T13:39:58.893Z,26.39
2022-08-03T13:42:31.564Z,27.05
2022-08-03T13:45:01.773Z,25.14
2022-08-03T13:47:31.234Z,22.37
2022-08-03T13:50:02.887Z,21.43
2022-08-03T13:52:36.232Z,19.50
2022-08-03T13:55:08.162Z,20.10
2022-08-03T13:58:03.396Z,18.23
2022-08-03T14:00:29.487Z,17.64
2022-08-03T14:03:09.258Z,18.74
2022-08-03T14:05:42.424Z,16.89
2022-08-03T14:08:13.427Z,16.41
2022-08-03T14:10:45.167Z,16.80
2022-08-03T14:13:16.838Z,15.64
2022-08-03T14:15:50.898Z,16.99
2022-08-03T14:18:29.323Z,14.91
2022-08-03T14:21:06.758Z,15.08
2022-08-03T14:23:38.795Z,15.71
2022-08-03T14:26:09.095Z,15.23
2022-08-03T14:28:38.330Z,16.62
2022-08-03T14:31:15.352Z,16.81
2022-08-03T14:33:57.384Z,16.80
2022-08-03T14:36:26.658Z,20.46
2022-08-03T14:39:01.168Z,20.00
2022-08-03T14:41:30.791Z,17.57
2022-08-03T14:44:01.658Z,17.65
2022-08-03T14:46:32.763Z,18.73
2022-08-03T14:50:38.328Z,17.37
2022-08-03T14:51:51.462Z,16.41
2022-08-03T14:54:24.824Z,15.31
2022-08-03T14:56:54.013Z,18.23
2022-08-03T14:59:23.222Z,18.16
2022-08-03T15:02:04.649Z,19.77
2022-08-03T15:04:37.408Z,16.26
2022-08-03T15:07:06.709Z,15.37
2022-08-03T15:09:38.667Z,14.96
2022-08-03T15:12:08.738Z,16.43
2022-08-03T15:14:38.031Z,15.89
2022-08-03T15:17:08.263Z,15.30
2022-08-03T15:20:01.174Z,15.65
2022-08-03T15:22:34.409Z,14.26
2022-08-03T15:26:28.283Z,16.61
2022-08-03T15:28:02.945Z,16.89
2022-08-03T15:30:37.062Z,17.88
2022-08-03T15:33:07.290Z,15.97
2022-08-03T15:35:36.956Z,17.02
2022-08-03T15:38:09.488Z,15.64
2022-08-03T15:40:40.450Z,15.57
2022-08-03T15:43:09.706Z,15.51
2022-08-03T15:45:41.948Z,14.61
2022-08-03T15:48:11.449Z,15.20
2022-08-03T15:50:41.064Z,13.97
2022-08-03T15:53:12.919Z,14.24
2022-08-03T15:55:44.873Z,14.11
2022-08-03T15:59:09.239Z,14.54
2022-08-03T16:01:06.800Z,14.42
2022-08-03T16:03:36.261Z,14.15
2022-08-03T16:06:07.550Z,14.66
2022-08-03T16:08:37.058Z,13.49
2022-08-03T16:11:07.697Z,14.88
2022-08-03T16:14:14.140Z,15.38
2022-08-03T16:16:26.158Z,14.88
2022-08-03T16:18:55.364Z,15.22
2022-08-03T16:21:25.613Z,15.65
2022-08-03T16:24:01.984Z,14.64
2022-08-03T16:26:36.988Z,14.96
2022-08-03T16:29:08.538Z,15.77
2022-08-03T16:31:52.915Z,14.96
2022-08-03T16:34:22.525Z,15.08
2022-08-03T16:36:51.992Z,14.77
2022-08-03T16:39:21.195Z,15.63
2022-08-03T16:41:54.291Z,17.35
2022-08-03T16:44:31.871Z,21.64
2022-08-03T16:47:01.358Z,23.28
2022-08-03T16:49:53.989Z,22.14
2022-08-03T16:52:20.035Z,20.52
2022-08-03T16:54:53.489Z,20.45
2022-08-03T16:57:59.384Z,20.20
2022-08-03T17:00:32.874Z,22.71
2022-08-03T17:03:18.676Z,23.38
2022-08-03T17:05:51.006Z,24.10
2022-08-03T17:08:26.507Z,24.64
2022-08-03T17:10:57.367Z,23.62
2022-08-03T17:13:39.510Z,23.74
2022-08-03T17:16:12.209Z,24.54
2022-08-03T17:18:54.129Z,27.24
2022-08-03T17:21:29.506Z,33.47
2022-08-03T17:24:04.799Z,35.37
2022-08-03T17:26:44.928Z,40.33
2022-08-03T17:29:23.153Z,42.09
2022-08-03T17:31:55.483Z,41.34
2022-08-03T17:34:26.523Z,39.84
2022-08-03T17:37:05.217Z,37.15
2022-08-03T17:39:57.683Z,34.43
2022-08-03T17:42:29.418Z,33.56
2022-08-03T17:45:03.541Z,35.66
2022-08-03T17:47:42.279Z,36.50
2022-08-03T17:50:24.875Z,37.55
2022-08-03T17:53:15.429Z,42.86
2022-08-03T17:56:36.162Z,47.48
2022-08-03T17:59:09.023Z,51.52
2022-08-03T18:02:22.322Z,55.97
2022-08-03T18:05:16.786Z,58.75
2022-08-03T18:07:59.071Z,61.52
2022-08-03T18:10:35.362Z,63.77
2022-08-03T18:13:10.798Z,63.18
2022-08-03T18:15:45.644Z,68.25
2022-08-03T18:18:29.305Z,72.55
2022-08-03T18:21:06.837Z,77.94
2022-08-03T18:23:40.408Z,78.31
2022-08-03T18:26:11.931Z,81.99
2022-08-03T18:28:43.300Z,82.92
2022-08-03T18:34:16.629Z,85.00
2022-08-03T18:36:57.224Z,85.75
2022-08-03T18:39:28.498Z,84.45
2022-08-03T18:41:59.532Z,89.48
2022-08-03T18:44:53.059Z,89.85
2022-08-03T18:47:53.155Z,89.47
2022-08-03T18:50:35.247Z,90.75
2022-08-03T18:53:19.700Z,92.68
2022-08-03T18:56:02.109Z,94.87
2022-08-03T18:58:42.293Z,96.81
2022-08-03T19:01:59.622Z,99.12
2022-08-03T19:04:16.884Z,98.19
2022-08-03T19:06:50.212Z,98.13
2022-08-03T19:09:33.022Z,97.81
2022-08-03T19:12:12.718Z,97.25
2022-08-03T19:15:05.314Z,99.06
2022-08-03T19:17:36.221Z,98.36
2022-08-03T19:20:10.392Z,100.00
2022-08-03T19:22:45.851Z,100.00
2022-08-03T19:25:15.259Z,100.00
2022-08-03T19:27:47.060Z,100.00
2022-08-03T19:30:32.726Z,100.00
2022-08-03T19:33:02.510Z,100.00
2022-08-03T19:35:51.322Z,100.00
2022-08-03T19:38:28.285Z,100.00
2022-08-03T19:41:02.285Z,100.00
2022-08-03T19:43:49.520Z,100.00
2022-08-03T19:46:30.250Z,100.00
2022-08-03T19:49:04.324Z,100.00
2022-08-03T19:52:01.797Z,100.00
2022-08-03T19:54:29.917Z,100.00
2022-08-03T19:57:04.788Z,100.00
2022-08-03T19:59:49.735Z,100.00
2022-08-03T20:02:27.047Z,100.00
2022-08-03T20:04:57.929Z,100.00
2022-08-03T20:07:32.398Z,100.00
2022-08-03T20:10:18.106Z,100.00
2022-08-03T20:12:49.130Z,100.00
2022-08-03T20:15:30.950Z,100.00
2022-08-03T20:18:01.618Z,100.00
2022-08-03T20:20:34.776Z,100.00
2022-08-03T20:23:12.436Z,100.00
2022-08-03T20:25:57.407Z,100.00
2022-08-03T20:28:33.480Z,100.00
2022-08-03T20:31:03.386Z,100.00
2022-08-03T20:33:45.759Z,100.00
2022-08-03T20:36:18.016Z,100.00
2022-08-03T20:38:48.449Z,100.00
2022-08-03T20:41:19.272Z,100.00
2022-08-03T20:43:49.783Z,100.00
2022-08-03T20:46:32.569Z,100.00
2022-08-03T20:49:08.034Z,100.00
2022-08-03T20:51:49.526Z,100.00
2022-08-03T20:54:31.088Z,100.00
2022-08-03T20:59:52.934Z,100.00
2022-08-03T21:02:29.531Z,100.00
2022-08-03T21:05:03.352Z,100.00
2022-08-03T21:08:04.301Z,100.00
2022-08-03T21:10:35.890Z,100.00
2022-08-03T21:13:04.063Z,85.34
2022-08-03T21:13:07.827Z,100.00
2022-08-03T21:13:18.204Z,100.00
2022-08-03T21:16:11.593Z,100.00
2022-08-03T21:18:46.863Z,100.00
2022-08-03T21:21:19.499Z,100.00
2022-08-03T21:23:53.291Z,100.00
2022-08-03T21:26:26.612Z,100.00
2022-08-03T21:29:14.201Z,100.00
2022-08-03T21:31:44.567Z,100.00
2022-08-03T21:34:13.796Z,100.00
2022-08-03T21:36:43.635Z,100.00
2022-08-03T21:39:13.730Z,100.00
2022-08-03T21:41:43.189Z,100.00
2022-08-03T21:44:14.017Z,100.00
2022-08-03T21:46:45.315Z,100.00
2022-08-03T21:50:05.609Z,100.00
2022-08-03T21:52:07.355Z,100.00
2022-08-03T21:54:39.001Z,100.00
2022-08-03T21:57:19.500Z,100.00
2022-08-03T21:59:55.294Z,100.00
2022-08-03T22:02:30.136Z,100.00
2022-08-03T22:05:04.893Z,100.00
2022-08-03T22:07:35.999Z,100.00
2022-08-03T22:10:08.318Z,100.00
2022-08-03T22:12:37.763Z,100.00
2022-08-03T22:15:12.045Z,100.00
2022-08-03T22:17:56.275Z,100.00
2022-08-03T22:20:27.096Z,100.00
2022-08-03T22:23:01.122Z,100.00
2022-08-03T22:25:35.015Z,100.00
2022-08-03T22:28:08.302Z,100.00
2022-08-03T22:30:40.503Z,100.00
2022-08-03T22:33:12.865Z,100.00
2022-08-03T22:35:48.094Z,100.00
2022-08-03T22:38:18.823Z,100.00
2022-08-03T22:40:51.235Z,100.00
2022-08-03T22:43:24.869Z,100.00
2022-08-03T22:46:09.715Z,100.00
2022-08-03T22:48:41.971Z,100.00
2022-08-03T22:51:12.032Z,100.00
2022-08-03T22:53:41.756Z,100.00
2022-08-03T22:56:12.129Z,100.00
2022-08-03T22:58:41.466Z,100.00
2022-08-03T23:01:14.319Z,100.00
2022-08-03T23:03:59.632Z,100.00
2022-08-03T23:06:36.412Z,100.00
2022-08-03T23:09:09.542Z,100.00
2022-08-03T23:11:42.856Z,100.00
2022-08-03T23:14:17.828Z,100.00
2022-08-03T23:16:49.014Z,100.00
2022-08-03T23:19:25.053Z,100.00
2022-08-03T23:22:02.432Z,100.00
2022-08-03T23:24:37.053Z,100.00
2022-08-03T23:27:09.247Z,100.00
2022-08-03T23:29:43.717Z,100.00
2022-08-03T23:32:15.423Z,100.00
2022-08-03T23:35:03.507Z,100.00
2022-08-03T23:37:33.512Z,100.00
2022-08-03T23:40:28.953Z,100.00
2022-08-03T23:42:59.400Z,100.00
2022-08-03T23:45:29.853Z,100.00
2022-08-03T23:48:00.442Z,100.00
2022-08-03T23:50:36.247Z,100.00
2022-08-03T23:53:13.377Z,100.00
2022-08-03T23:55:59.939Z,100.00
2022-08-03T23:58:53.452Z,100.00
